sensor_id;sensor_type;location;lat;lon;timestamp;P1;durP1;ratioP1;P2;durP2;ratioP2
82479;SDS011;72105;46.112;12.902;2023-08-17T00:00:41;10.77;;;8.23;;
82479;SDS011;72105;46.112;12.902;2023-08-17T00:03:07;10.30;;;8.38;;
82479;SDS011;72105;46.112;12.902;2023-08-17T00:05:34;10.23;;;8.43;;
82479;SDS011;72105;46.112;12.902;2023-08-17T00:08:00;9.27;;;8.38;;
82479;SDS011;72105;46.112;12.902;2023-08-17T00:10:27;9.38;;;7.95;;
82479;SDS011;72105;46.112;12.902;2023-08-17T00:12:53;10.10;;;8.23;;
82479;SDS011;72105;46.112;12.902;2023-08-17T00:15:20;10.95;;;8.60;;
82479;SDS011;72105;46.112;12.902;2023-08-17T00:17:46;9.50;;;7.93;;
82479;SDS011;72105;46.112;12.902;2023-08-17T00:20:12;9.07;;;7.65;;
82479;SDS011;72105;46.112;12.902;2023-08-17T00:22:39;11.35;;;8.23;;
82479;SDS011;72105;46.112;12.902;2023-08-17T00:25:05;11.05;;;8.25;;
82479;SDS011;72105;46.112;12.902;2023-08-17T00:27:32;10.02;;;8.20;;
82479;SDS011;72105;46.112;12.902;2023-08-17T00:29:58;9.13;;;7.78;;
82479;SDS011;72105;46.112;12.902;2023-08-17T00:32:24;10.15;;;8.27;;
82479;SDS011;72105;46.112;12.902;2023-08-17T00:34:50;9.27;;;8.20;;
82479;SDS011;72105;46.112;12.902;2023-08-17T00:37:16;10.02;;;7.88;;
82479;SDS011;72105;46.112;12.902;2023-08-17T00:39:42;7.78;;;6.97;;
82479;SDS011;72105;46.112;12.902;2023-08-17T00:42:09;8.95;;;7.40;;
82479;SDS011;72105;46.112;12.902;2023-08-17T00:44:35;10.80;;;7.22;;
82479;SDS011;72105;46.112;12.902;2023-08-17T00:47:01;10.00;;;7.63;;
82479;SDS011;72105;46.112;12.902;2023-08-17T00:49:27;8.02;;;7.22;;
82479;SDS011;72105;46.112;12.902;2023-08-17T00:51:53;8.27;;;7.13;;
82479;SDS011;72105;46.112;12.902;2023-08-17T00:54:21;9.48;;;8.02;;
82479;SDS011;72105;46.112;12.902;2023-08-17T00:56:49;9.85;;;8.48;;
82479;SDS011;72105;46.112;12.902;2023-08-17T00:59:15;9.63;;;7.90;;
82479;SDS011;72105;46.112;12.902;2023-08-17T01:01:42;11.25;;;7.82;;
82479;SDS011;72105;46.112;12.902;2023-08-17T01:04:08;14.60;;;7.90;;
82479;SDS011;72105;46.112;12.902;2023-08-17T01:06:34;9.95;;;8.18;;
82479;SDS011;72105;46.112;12.902;2023-08-17T01:09:00;9.45;;;8.18;;
82479;SDS011;72105;46.112;12.902;2023-08-17T01:11:37;9.40;;;8.20;;
82479;SDS011;72105;46.112;12.902;2023-08-17T01:14:05;11.18;;;8.60;;
82479;SDS011;72105;46.112;12.902;2023-08-17T01:16:39;9.77;;;7.63;;
82479;SDS011;72105;46.112;12.902;2023-08-17T01:19:07;10.40;;;7.47;;
82479;SDS011;72105;46.112;12.902;2023-08-17T01:21:47;10.48;;;8.40;;
82479;SDS011;72105;46.112;12.902;2023-08-17T01:24:15;11.45;;;8.70;;
82479;SDS011;72105;46.112;12.902;2023-08-17T01:26:41;9.70;;;7.88;;
82479;SDS011;72105;46.112;12.902;2023-08-17T01:29:07;9.55;;;7.70;;
82479;SDS011;72105;46.112;12.902;2023-08-17T01:31:36;8.02;;;7.22;;
82479;SDS011;72105;46.112;12.902;2023-08-17T01:34:05;9.20;;;7.90;;
82479;SDS011;72105;46.112;12.902;2023-08-17T01:39:01;9.80;;;7.38;;
82479;SDS011;72105;46.112;12.902;2023-08-17T01:41:28;9.57;;;8.50;;
82479;SDS011;72105;46.112;12.902;2023-08-17T01:43:54;10.52;;;8.93;;
82479;SDS011;72105;46.112;12.902;2023-08-17T01:46:20;9.77;;;8.27;;
82479;SDS011;72105;46.112;12.902;2023-08-17T01:48:47;11.48;;;8.82;;
82479;SDS011;72105;46.112;12.902;2023-08-17T01:51:17;9.05;;;7.82;;
82479;SDS011;72105;46.112;12.902;2023-08-17T01:53:47;10.48;;;8.30;;
82479;SDS011;72105;46.112;12.902;2023-08-17T01:56:13;9.48;;;8.07;;
82479;SDS011;72105;46.112;12.902;2023-08-17T01:58:39;9.50;;;8.43;;
82479;SDS011;72105;46.112;12.902;2023-08-17T02:01:06;8.93;;;7.90;;
82479;SDS011;72105;46.112;12.902;2023-08-17T02:03:32;12.35;;;9.20;;
82479;SDS011;72105;46.112;12.902;2023-08-17T02:06:00;10.02;;;8.55;;
82479;SDS011;72105;46.112;12.902;2023-08-17T02:08:27;10.82;;;8.95;;
82479;SDS011;72105;46.112;12.902;2023-08-17T02:10:53;11.10;;;8.93;;
82479;SDS011;72105;46.112;12.902;2023-08-17T02:13:19;13.38;;;9.55;;
82479;SDS011;72105;46.112;12.902;2023-08-17T02:15:48;10.70;;;8.82;;
82479;SDS011;72105;46.112;12.902;2023-08-17T02:18:14;11.70;;;9.45;;
82479;SDS011;72105;46.112;12.902;2023-08-17T02:20:40;12.82;;;9.95;;
82479;SDS011;72105;46.112;12.902;2023-08-17T02:23:06;10.63;;;9.20;;
82479;SDS011;72105;46.112;12.902;2023-08-17T02:25:32;10.73;;;9.38;;
82479;SDS011;72105;46.112;12.902;2023-08-17T02:28:01;12.82;;;9.32;;
82479;SDS011;72105;46.112;12.902;2023-08-17T02:32:54;12.02;;;8.65;;
82479;SDS011;72105;46.112;12.902;2023-08-17T02:35:21;10.05;;;8.88;;
82479;SDS011;72105;46.112;12.902;2023-08-17T02:37:47;9.88;;;8.32;;
82479;SDS011;72105;46.112;12.902;2023-08-17T02:40:13;10.00;;;8.43;;
82479;SDS011;72105;46.112;12.902;2023-08-17T02:42:39;12.65;;;9.60;;
82479;SDS011;72105;46.112;12.902;2023-08-17T02:45:06;11.30;;;8.70;;
82479;SDS011;72105;46.112;12.902;2023-08-17T02:47:32;9.60;;;8.60;;
82479;SDS011;72105;46.112;12.902;2023-08-17T02:49:58;12.88;;;8.07;;
82479;SDS011;72105;46.112;12.902;2023-08-17T02:52:24;9.93;;;8.57;;
82479;SDS011;72105;46.112;12.902;2023-08-17T02:54:50;13.48;;;9.77;;
82479;SDS011;72105;46.112;12.902;2023-08-17T02:57:17;13.02;;;9.30;;
82479;SDS011;72105;46.112;12.902;2023-08-17T02:59:43;13.18;;;9.93;;
82479;SDS011;72105;46.112;12.902;2023-08-17T03:02:09;13.07;;;9.88;;
82479;SDS011;72105;46.112;12.902;2023-08-17T03:04:35;12.30;;;9.90;;
82479;SDS011;72105;46.112;12.902;2023-08-17T03:07:02;11.82;;;9.35;;
82479;SDS011;72105;46.112;12.902;2023-08-17T03:09:28;13.45;;;9.68;;
82479;SDS011;72105;46.112;12.902;2023-08-17T03:11:54;11.60;;;9.20;;
82479;SDS011;72105;46.112;12.902;2023-08-17T03:14:20;13.40;;;9.68;;
82479;SDS011;72105;46.112;12.902;2023-08-17T03:16:46;10.13;;;8.20;;
82479;SDS011;72105;46.112;12.902;2023-08-17T03:19:12;10.55;;;9.45;;
82479;SDS011;72105;46.112;12.902;2023-08-17T03:21:38;10.52;;;9.43;;
82479;SDS011;72105;46.112;12.902;2023-08-17T03:24:04;10.00;;;8.68;;
82479;SDS011;72105;46.112;12.902;2023-08-17T03:26:31;9.82;;;8.82;;
82479;SDS011;72105;46.112;12.902;2023-08-17T03:28:57;10.02;;;8.43;;
82479;SDS011;72105;46.112;12.902;2023-08-17T03:31:23;10.35;;;9.02;;
82479;SDS011;72105;46.112;12.902;2023-08-17T03:33:49;9.40;;;8.32;;
82479;SDS011;72105;46.112;12.902;2023-08-17T03:36:15;11.32;;;8.95;;
82479;SDS011;72105;46.112;12.902;2023-08-17T03:38:41;13.07;;;9.30;;
82479;SDS011;72105;46.112;12.902;2023-08-17T03:41:07;11.57;;;8.95;;
82479;SDS011;72105;46.112;12.902;2023-08-17T03:43:33;9.77;;;8.75;;
82479;SDS011;72105;46.112;12.902;2023-08-17T03:45:59;10.55;;;8.10;;
82479;SDS011;72105;46.112;12.902;2023-08-17T03:48:25;10.23;;;8.77;;
82479;SDS011;72105;46.112;12.902;2023-08-17T03:50:52;9.35;;;8.27;;
82479;SDS011;72105;46.112;12.902;2023-08-17T03:53:18;11.45;;;8.20;;
82479;SDS011;72105;46.112;12.902;2023-08-17T03:55:50;9.43;;;8.32;;
82479;SDS011;72105;46.112;12.902;2023-08-17T03:58:17;9.40;;;8.13;;
82479;SDS011;72105;46.112;12.902;2023-08-17T04:00:50;11.00;;;8.73;;
82479;SDS011;72105;46.112;12.902;2023-08-17T04:03:16;9.63;;;8.57;;
82479;SDS011;72105;46.112;12.902;2023-08-17T04:05:43;10.20;;;8.85;;
82479;SDS011;72105;46.112;12.902;2023-08-17T04:08:09;11.57;;;8.15;;
82479;SDS011;72105;46.112;12.902;2023-08-17T04:10:35;9.38;;;8.13;;
82479;SDS011;72105;46.112;12.902;2023-08-17T04:13:01;10.13;;;8.40;;
82479;SDS011;72105;46.112;12.902;2023-08-17T04:15:28;10.13;;;8.48;;
82479;SDS011;72105;46.112;12.902;2023-08-17T04:17:54;10.60;;;8.45;;
82479;SDS011;72105;46.112;12.902;2023-08-17T04:20:20;11.48;;;9.45;;
82479;SDS011;72105;46.112;12.902;2023-08-17T04:22:47;10.98;;;8.93;;
82479;SDS011;72105;46.112;12.902;2023-08-17T04:25:13;11.60;;;9.73;;
82479;SDS011;72105;46.112;12.902;2023-08-17T04:27:40;10.63;;;9.32;;
82479;SDS011;72105;46.112;12.902;2023-08-17T04:30:06;9.98;;;8.77;;
82479;SDS011;72105;46.112;12.902;2023-08-17T04:32:32;9.63;;;8.30;;
82479;SDS011;72105;46.112;12.902;2023-08-17T04:34:58;9.68;;;8.68;;
82479;SDS011;72105;46.112;12.902;2023-08-17T04:37:24;9.20;;;7.97;;
82479;SDS011;72105;46.112;12.902;2023-08-17T04:39:50;10.32;;;8.20;;
82479;SDS011;72105;46.112;12.902;2023-08-17T04:42:16;9.57;;;8.57;;
82479;SDS011;72105;46.112;12.902;2023-08-17T04:44:45;9.88;;;8.07;;
82479;SDS011;72105;46.112;12.902;2023-08-17T04:47:11;9.75;;;8.38;;
82479;SDS011;72105;46.112;12.902;2023-08-17T04:49:37;10.07;;;8.40;;
82479;SDS011;72105;46.112;12.902;2023-08-17T04:52:03;9.65;;;7.75;;
82479;SDS011;72105;46.112;12.902;2023-08-17T04:54:29;9.88;;;8.82;;
82479;SDS011;72105;46.112;12.902;2023-08-17T04:56:56;11.80;;;8.30;;
82479;SDS011;72105;46.112;12.902;2023-08-17T04:59:22;9.23;;;8.23;;
82479;SDS011;72105;46.112;12.902;2023-08-17T05:01:48;8.80;;;7.90;;
82479;SDS011;72105;46.112;12.902;2023-08-17T05:04:14;9.82;;;8.82;;
82479;SDS011;72105;46.112;12.902;2023-08-17T05:06:40;11.02;;;8.65;;
82479;SDS011;72105;46.112;12.902;2023-08-17T05:09:07;8.35;;;7.45;;
82479;SDS011;72105;46.112;12.902;2023-08-17T05:11:34;8.50;;;7.68;;
82479;SDS011;72105;46.112;12.902;2023-08-17T05:14:00;8.25;;;7.45;;
82479;SDS011;72105;46.112;12.902;2023-08-17T05:16:26;8.15;;;7.35;;
82479;SDS011;72105;46.112;12.902;2023-08-17T05:18:52;8.35;;;7.45;;
82479;SDS011;72105;46.112;12.902;2023-08-17T05:21:18;8.32;;;7.05;;
82479;SDS011;72105;46.112;12.902;2023-08-17T05:23:44;8.65;;;7.75;;
82479;SDS011;72105;46.112;12.902;2023-08-17T05:26:10;8.32;;;6.45;;
82479;SDS011;72105;46.112;12.902;2023-08-17T05:28:37;7.90;;;7.05;;
82479;SDS011;72105;46.112;12.902;2023-08-17T05:31:04;8.13;;;7.32;;
82479;SDS011;72105;46.112;12.902;2023-08-17T05:33:31;7.32;;;6.43;;
82479;SDS011;72105;46.112;12.902;2023-08-17T05:35:57;8.38;;;6.88;;
82479;SDS011;72105;46.112;12.902;2023-08-17T05:38:23;7.78;;;6.97;;
82479;SDS011;72105;46.112;12.902;2023-08-17T05:40:55;7.13;;;6.40;;
82479;SDS011;72105;46.112;12.902;2023-08-17T05:43:22;7.30;;;6.60;;
82479;SDS011;72105;46.112;12.902;2023-08-17T05:45:48;7.65;;;6.90;;
82479;SDS011;72105;46.112;12.902;2023-08-17T05:48:14;8.55;;;6.53;;
82479;SDS011;72105;46.112;12.902;2023-08-17T05:50:41;7.93;;;6.93;;
82479;SDS011;72105;46.112;12.902;2023-08-17T05:53:07;7.50;;;6.65;;
82479;SDS011;72105;46.112;12.902;2023-08-17T05:55:33;7.65;;;6.95;;
82479;SDS011;72105;46.112;12.902;2023-08-17T05:57:59;9.38;;;7.13;;
82479;SDS011;72105;46.112;12.902;2023-08-17T06:00:26;8.43;;;7.40;;
82479;SDS011;72105;46.112;12.902;2023-08-17T06:02:52;6.93;;;6.15;;
82479;SDS011;72105;46.112;12.902;2023-08-17T06:05:22;7.85;;;6.53;;
82479;SDS011;72105;46.112;12.902;2023-08-17T06:07:51;7.53;;;6.72;;
82479;SDS011;72105;46.112;12.902;2023-08-17T06:10:17;8.48;;;7.30;;
82479;SDS011;72105;46.112;12.902;2023-08-17T06:15:09;6.78;;;6.18;;
82479;SDS011;72105;46.112;12.902;2023-08-17T06:17:35;7.40;;;6.70;;
82479;SDS011;72105;46.112;12.902;2023-08-17T06:20:02;7.30;;;6.68;;
82479;SDS011;72105;46.112;12.902;2023-08-17T06:22:28;7.57;;;6.88;;
82479;SDS011;72105;46.112;12.902;2023-08-17T06:24:54;7.38;;;6.68;;
82479;SDS011;72105;46.112;12.902;2023-08-17T06:27:20;7.93;;;7.13;;
82479;SDS011;72105;46.112;12.902;2023-08-17T06:29:46;8.07;;;7.18;;
82479;SDS011;72105;46.112;12.902;2023-08-17T06:32:13;8.68;;;7.70;;
82479;SDS011;72105;46.112;12.902;2023-08-17T06:34:39;8.15;;;7.10;;
82479;SDS011;72105;46.112;12.902;2023-08-17T06:37:05;8.15;;;7.28;;
82479;SDS011;72105;46.112;12.902;2023-08-17T06:39:31;8.90;;;7.72;;
82479;SDS011;72105;46.112;12.902;2023-08-17T06:41:57;8.55;;;7.63;;
82479;SDS011;72105;46.112;12.902;2023-08-17T06:44:23;8.57;;;7.72;;
82479;SDS011;72105;46.112;12.902;2023-08-17T06:46:50;9.93;;;8.05;;
82479;SDS011;72105;46.112;12.902;2023-08-17T06:49:16;8.68;;;7.80;;
82479;SDS011;72105;46.112;12.902;2023-08-17T06:51:42;8.00;;;7.20;;
82479;SDS011;72105;46.112;12.902;2023-08-17T06:54:08;9.38;;;8.38;;
82479;SDS011;72105;46.112;12.902;2023-08-17T06:56:34;8.63;;;7.60;;
82479;SDS011;72105;46.112;12.902;2023-08-17T06:59:00;9.90;;;7.78;;
82479;SDS011;72105;46.112;12.902;2023-08-17T07:01:28;8.43;;;7.53;;
82479;SDS011;72105;46.112;12.902;2023-08-17T07:03:54;8.27;;;7.25;;
82479;SDS011;72105;46.112;12.902;2023-08-17T07:06:20;8.13;;;7.20;;
82479;SDS011;72105;46.112;12.902;2023-08-17T07:08:47;9.50;;;8.52;;
82479;SDS011;72105;46.112;12.902;2023-08-17T07:11:13;9.57;;;7.43;;
82479;SDS011;72105;46.112;12.902;2023-08-17T07:13:39;10.15;;;7.95;;
82479;SDS011;72105;46.112;12.902;2023-08-17T07:16:05;9.00;;;8.10;;
82479;SDS011;72105;46.112;12.902;2023-08-17T07:18:31;8.32;;;7.53;;
82479;SDS011;72105;46.112;12.902;2023-08-17T07:20:57;9.40;;;7.93;;
82479;SDS011;72105;46.112;12.902;2023-08-17T07:23:23;8.60;;;7.45;;
82479;SDS011;72105;46.112;12.902;2023-08-17T07:25:49;8.68;;;7.47;;
82479;SDS011;72105;46.112;12.902;2023-08-17T07:28:15;8.40;;;7.50;;
82479;SDS011;72105;46.112;12.902;2023-08-17T07:30:41;8.10;;;6.97;;
82479;SDS011;72105;46.112;12.902;2023-08-17T07:33:08;8.02;;;7.22;;
82479;SDS011;72105;46.112;12.902;2023-08-17T07:35:34;8.40;;;7.60;;
82479;SDS011;72105;46.112;12.902;2023-08-17T07:38:00;8.18;;;7.38;;
82479;SDS011;72105;46.112;12.902;2023-08-17T07:40:26;9.38;;;7.72;;
82479;SDS011;72105;46.112;12.902;2023-08-17T07:42:52;8.23;;;7.38;;
82479;SDS011;72105;46.112;12.902;2023-08-17T07:45:18;9.32;;;7.50;;
82479;SDS011;72105;46.112;12.902;2023-08-17T07:47:44;8.60;;;7.70;;
82479;SDS011;72105;46.112;12.902;2023-08-17T07:50:10;9.13;;;8.05;;
82479;SDS011;72105;46.112;12.902;2023-08-17T07:52:36;9.07;;;8.18;;
82479;SDS011;72105;46.112;12.902;2023-08-17T07:55:03;7.72;;;6.82;;
82479;SDS011;72105;46.112;12.902;2023-08-17T07:57:30;8.13;;;6.95;;
82479;SDS011;72105;46.112;12.902;2023-08-17T07:59:56;9.25;;;7.70;;
82479;SDS011;72105;46.112;12.902;2023-08-17T08:02:22;9.00;;;8.10;;
82479;SDS011;72105;46.112;12.902;2023-08-17T08:04:48;8.68;;;7.78;;
82479;SDS011;72105;46.112;12.902;2023-08-17T08:07:14;10.02;;;8.48;;
82479;SDS011;72105;46.112;12.902;2023-08-17T08:09:40;13.32;;;8.65;;
82479;SDS011;72105;46.112;12.902;2023-08-17T08:12:09;10.73;;;7.95;;
82479;SDS011;72105;46.112;12.902;2023-08-17T08:14:35;7.93;;;6.72;;
82479;SDS011;72105;46.112;12.902;2023-08-17T08:17:01;7.63;;;6.47;;
82479;SDS011;72105;46.112;12.902;2023-08-17T08:19:27;8.95;;;7.63;;
82479;SDS011;72105;46.112;12.902;2023-08-17T08:21:53;8.48;;;7.45;;
82479;SDS011;72105;46.112;12.902;2023-08-17T08:24:19;10.27;;;8.65;;
82479;SDS011;72105;46.112;12.902;2023-08-17T08:26:45;7.00;;;6.30;;
82479;SDS011;72105;46.112;12.902;2023-08-17T08:29:12;7.28;;;6.57;;
82479;SDS011;72105;46.112;12.902;2023-08-17T08:31:38;7.25;;;6.53;;
82479;SDS011;72105;46.112;12.902;2023-08-17T08:34:04;7.65;;;6.85;;
82479;SDS011;72105;46.112;12.902;2023-08-17T08:36:30;6.78;;;6.18;;
82479;SDS011;72105;46.112;12.902;2023-08-17T08:38:56;8.75;;;7.20;;
82479;SDS011;72105;46.112;12.902;2023-08-17T08:41:22;6.63;;;5.97;;
82479;SDS011;72105;46.112;12.902;2023-08-17T08:43:51;7.35;;;6.53;;
82479;SDS011;72105;46.112;12.902;2023-08-17T08:46:18;7.40;;;6.70;;
82479;SDS011;72105;46.112;12.902;2023-08-17T08:48:44;7.70;;;6.90;;
82479;SDS011;72105;46.112;12.902;2023-08-17T08:51:11;7.30;;;6.60;;
82479;SDS011;72105;46.112;12.902;2023-08-17T08:53:44;7.55;;;6.50;;
82479;SDS011;72105;46.112;12.902;2023-08-17T08:56:11;7.75;;;6.72;;
82479;SDS011;72105;46.112;12.902;2023-08-17T08:58:38;7.28;;;6.45;;
82479;SDS011;72105;46.112;12.902;2023-08-17T09:01:04;7.82;;;7.03;;
82479;SDS011;72105;46.112;12.902;2023-08-17T09:03:30;7.80;;;6.50;;
82479;SDS011;72105;46.112;12.902;2023-08-17T09:05:58;8.90;;;6.63;;
82479;SDS011;72105;46.112;12.902;2023-08-17T09:08:27;6.60;;;6.00;;
82479;SDS011;72105;46.112;12.902;2023-08-17T09:10:53;7.57;;;6.93;;
82479;SDS011;72105;46.112;12.902;2023-08-17T09:13:19;7.88;;;7.10;;
82479;SDS011;72105;46.112;12.902;2023-08-17T09:15:45;7.10;;;6.50;;
82479;SDS011;72105;46.112;12.902;2023-08-17T09:18:11;7.80;;;6.70;;
82479;SDS011;72105;46.112;12.902;2023-08-17T09:20:38;7.97;;;6.82;;
82479;SDS011;72105;46.112;12.902;2023-08-17T09:23:09;7.10;;;6.50;;
82479;SDS011;72105;46.112;12.902;2023-08-17T09:25:37;7.45;;;6.75;;
82479;SDS011;72105;46.112;12.902;2023-08-17T09:28:11;7.57;;;6.78;;
82479;SDS011;72105;46.112;12.902;2023-08-17T09:30:55;6.97;;;6.38;;
82479;SDS011;72105;46.112;12.902;2023-08-17T09:33:22;8.63;;;7.72;;
82479;SDS011;72105;46.112;12.902;2023-08-17T09:35:51;7.32;;;6.65;;
82479;SDS011;72105;46.112;12.902;2023-08-17T09:38:18;7.72;;;7.03;;
82479;SDS011;72105;46.112;12.902;2023-08-17T09:43:10;6.78;;;6.07;;
82479;SDS011;72105;46.112;12.902;2023-08-17T09:45:38;7.53;;;6.15;;
82479;SDS011;72105;46.112;12.902;2023-08-17T09:48:05;7.32;;;6.63;;
82479;SDS011;72105;46.112;12.902;2023-08-17T09:50:31;7.95;;;7.15;;
82479;SDS011;72105;46.112;12.902;2023-08-17T09:52:57;7.55;;;6.85;;
82479;SDS011;72105;46.112;12.902;2023-08-17T09:55:23;8.13;;;7.43;;
82479;SDS011;72105;46.112;12.902;2023-08-17T09:57:50;7.25;;;6.55;;
82479;SDS011;72105;46.112;12.902;2023-08-17T10:00:17;7.10;;;6.47;;
82479;SDS011;72105;46.112;12.902;2023-08-17T10:02:49;7.50;;;6.22;;
82479;SDS011;72105;46.112;12.902;2023-08-17T10:05:19;7.72;;;6.85;;
82479;SDS011;72105;46.112;12.902;2023-08-17T10:07:46;10.88;;;7.07;;
82479;SDS011;72105;46.112;12.902;2023-08-17T10:10:16;7.63;;;6.90;;
82479;SDS011;72105;46.112;12.902;2023-08-17T10:12:45;6.82;;;6.18;;
82479;SDS011;72105;46.112;12.902;2023-08-17T10:15:13;11.85;;;9.63;;
82479;SDS011;72105;46.112;12.902;2023-08-17T10:17:44;8.73;;;7.03;;
82479;SDS011;72105;46.112;12.902;2023-08-17T10:20:15;6.88;;;6.07;;
82479;SDS011;72105;46.112;12.902;2023-08-17T10:25:09;7.82;;;6.63;;
82479;SDS011;72105;46.112;12.902;2023-08-17T10:27:38;6.68;;;6.07;;
82479;SDS011;72105;46.112;12.902;2023-08-17T10:30:06;7.53;;;6.10;;
82479;SDS011;72105;46.112;12.902;2023-08-17T10:32:33;8.75;;;6.57;;
82479;SDS011;72105;46.112;12.902;2023-08-17T10:35:00;7.05;;;6.45;;
82479;SDS011;72105;46.112;12.902;2023-08-17T10:37:27;7.03;;;6.32;;
82479;SDS011;72105;46.112;12.902;2023-08-17T10:39:54;6.95;;;6.07;;
82479;SDS011;72105;46.112;12.902;2023-08-17T10:42:35;7.28;;;6.57;;
82479;SDS011;72105;46.112;12.902;2023-08-17T10:45:24;8.45;;;6.80;;
82479;SDS011;72105;46.112;12.902;2023-08-17T10:47:48;7.18;;;6.35;;
82479;SDS011;72105;46.112;12.902;2023-08-17T10:50:21;7.63;;;6.85;;
82479;SDS011;72105;46.112;12.902;2023-08-17T10:52:48;6.88;;;6.18;;
82479;SDS011;72105;46.112;12.902;2023-08-17T10:55:15;8.52;;;6.95;;
82479;SDS011;72105;46.112;12.902;2023-08-17T11:00:15;7.10;;;6.13;;
82479;SDS011;72105;46.112;12.902;2023-08-17T11:02:44;7.25;;;6.55;;
82479;SDS011;72105;46.112;12.902;2023-08-17T11:05:11;7.43;;;6.53;;
82479;SDS011;72105;46.112;12.902;2023-08-17T11:07:42;7.78;;;6.40;;
82479;SDS011;72105;46.112;12.902;2023-08-17T11:12:44;11.88;;;7.03;;
82479;SDS011;72105;46.112;12.902;2023-08-17T11:15:10;6.53;;;5.75;;
82479;SDS011;72105;46.112;12.902;2023-08-17T11:17:37;6.68;;;6.15;;
82479;SDS011;72105;46.112;12.902;2023-08-17T11:20:03;7.00;;;6.30;;
82479;SDS011;72105;46.112;12.902;2023-08-17T11:24:55;8.25;;;6.75;;
82479;SDS011;72105;46.112;12.902;2023-08-17T11:27:21;8.38;;;6.97;;
82479;SDS011;72105;46.112;12.902;2023-08-17T11:29:48;7.05;;;6.35;;
82479;SDS011;72105;46.112;12.902;2023-08-17T11:32:17;9.00;;;7.40;;
82479;SDS011;72105;46.112;12.902;2023-08-17T11:34:43;6.95;;;6.32;;
82479;SDS011;72105;46.112;12.902;2023-08-17T11:37:12;6.75;;;6.05;;
82479;SDS011;72105;46.112;12.902;2023-08-17T11:39:39;6.60;;;6.00;;
82479;SDS011;72105;46.112;12.902;2023-08-17T11:42:06;7.13;;;6.43;;
82479;SDS011;72105;46.112;12.902;2023-08-17T11:44:32;8.73;;;6.45;;
82479;SDS011;72105;46.112;12.902;2023-08-17T11:46:59;6.18;;;5.57;;
82479;SDS011;72105;46.112;12.902;2023-08-17T11:49:25;8.73;;;6.30;;
82479;SDS011;72105;46.112;12.902;2023-08-17T11:51:51;7.30;;;6.63;;
82479;SDS011;72105;46.112;12.902;2023-08-17T11:54:17;7.55;;;5.85;;
82479;SDS011;72105;46.112;12.902;2023-08-17T11:56:43;8.43;;;6.45;;
82479;SDS011;72105;46.112;12.902;2023-08-17T11:59:10;7.25;;;6.50;;
82479;SDS011;72105;46.112;12.902;2023-08-17T12:01:39;7.95;;;7.25;;
82479;SDS011;72105;46.112;12.902;2023-08-17T12:04:05;7.03;;;6.05;;
82479;SDS011;72105;46.112;12.902;2023-08-17T12:06:31;7.25;;;6.65;;
82479;SDS011;72105;46.112;12.902;2023-08-17T12:08:57;6.85;;;6.25;;
82479;SDS011;72105;46.112;12.902;2023-08-17T12:11:24;7.43;;;6.72;;
82479;SDS011;72105;46.112;12.902;2023-08-17T12:16:18;7.10;;;6.43;;
82479;SDS011;72105;46.112;12.902;2023-08-17T12:18:45;6.85;;;6.25;;
82479;SDS011;72105;46.112;12.902;2023-08-17T12:21:13;8.68;;;7.78;;
82479;SDS011;72105;46.112;12.902;2023-08-17T12:23:39;8.18;;;7.38;;
82479;SDS011;72105;46.112;12.902;2023-08-17T12:28:32;7.78;;;7.07;;
82479;SDS011;72105;46.112;12.902;2023-08-17T12:31:02;7.13;;;6.43;;
82479;SDS011;72105;46.112;12.902;2023-08-17T12:33:28;7.63;;;6.93;;
82479;SDS011;72105;46.112;12.902;2023-08-17T12:38:21;8.02;;;6.45;;
82479;SDS011;72105;46.112;12.902;2023-08-17T12:40:47;7.10;;;6.47;;
82479;SDS011;72105;46.112;12.902;2023-08-17T12:43:14;8.07;;;7.13;;
82479;SDS011;72105;46.112;12.902;2023-08-17T12:45:40;7.25;;;6.55;;
82479;SDS011;72105;46.112;12.902;2023-08-17T12:48:06;7.20;;;6.50;;
82479;SDS011;72105;46.112;12.902;2023-08-17T12:50:32;6.78;;;6.18;;
82479;SDS011;72105;46.112;12.902;2023-08-17T12:52:58;8.00;;;6.60;;
82479;SDS011;72105;46.112;12.902;2023-08-17T12:55:24;7.25;;;6.43;;
82479;SDS011;72105;46.112;12.902;2023-08-17T12:57:51;7.57;;;6.32;;
82479;SDS011;72105;46.112;12.902;2023-08-17T13:00:17;7.32;;;6.72;;
82479;SDS011;72105;46.112;12.902;2023-08-17T13:02:43;7.75;;;6.68;;
82479;SDS011;72105;46.112;12.902;2023-08-17T13:05:11;7.00;;;5.72;;
82479;SDS011;72105;46.112;12.902;2023-08-17T13:07:37;6.60;;;6.00;;
82479;SDS011;72105;46.112;12.902;2023-08-17T13:10:04;7.43;;;6.60;;
82479;SDS011;72105;46.112;12.902;2023-08-17T13:12:30;7.53;;;6.25;;
82479;SDS011;72105;46.112;12.902;2023-08-17T13:14:56;6.90;;;6.22;;
82479;SDS011;72105;46.112;12.902;2023-08-17T13:17:22;8.18;;;6.00;;
82479;SDS011;72105;46.112;12.902;2023-08-17T13:19:48;7.25;;;6.53;;
82479;SDS011;72105;46.112;12.902;2023-08-17T13:22:17;7.25;;;6.55;;
82479;SDS011;72105;46.112;12.902;2023-08-17T13:24:43;6.95;;;6.28;;
82479;SDS011;72105;46.112;12.902;2023-08-17T13:27:09;6.57;;;5.97;;
82479;SDS011;72105;46.112;12.902;2023-08-17T13:29:35;6.82;;;6.22;;
82479;SDS011;72105;46.112;12.902;2023-08-17T13:32:05;7.80;;;7.10;;
82479;SDS011;72105;46.112;12.902;2023-08-17T13:34:32;7.75;;;6.95;;
82479;SDS011;72105;46.112;12.902;2023-08-17T13:36:58;7.35;;;6.75;;
82479;SDS011;72105;46.112;12.902;2023-08-17T13:39:24;9.70;;;6.90;;
82479;SDS011;72105;46.112;12.902;2023-08-17T13:41:50;7.85;;;7.10;;
82479;SDS011;72105;46.112;12.902;2023-08-17T13:44:16;7.35;;;6.75;;
82479;SDS011;72105;46.112;12.902;2023-08-17T13:46:42;11.65;;;10.38;;
82479;SDS011;72105;46.112;12.902;2023-08-17T13:49:08;7.65;;;6.95;;
82479;SDS011;72105;46.112;12.902;2023-08-17T13:51:34;7.57;;;6.60;;
82479;SDS011;72105;46.112;12.902;2023-08-17T13:54:00;7.22;;;6.38;;
82479;SDS011;72105;46.112;12.902;2023-08-17T13:56:26;8.40;;;7.55;;
82479;SDS011;72105;46.112;12.902;2023-08-17T13:58:53;8.15;;;7.35;;
82479;SDS011;72105;46.112;12.902;2023-08-17T14:01:19;7.70;;;6.90;;
82479;SDS011;72105;46.112;12.902;2023-08-17T14:03:45;7.55;;;6.85;;
82479;SDS011;72105;46.112;12.902;2023-08-17T14:06:11;8.20;;;6.63;;
82479;SDS011;72105;46.112;12.902;2023-08-17T14:08:37;7.30;;;6.60;;
82479;SDS011;72105;46.112;12.902;2023-08-17T14:11:03;8.00;;;7.30;;
82479;SDS011;72105;46.112;12.902;2023-08-17T14:13:31;6.90;;;6.18;;
82479;SDS011;72105;46.112;12.902;2023-08-17T14:15:58;7.32;;;6.63;;
82479;SDS011;72105;46.112;12.902;2023-08-17T14:18:24;8.27;;;7.47;;
82479;SDS011;72105;46.112;12.902;2023-08-17T14:20:50;7.53;;;6.82;;
82479;SDS011;72105;46.112;12.902;2023-08-17T14:25:43;10.13;;;7.85;;
82479;SDS011;72105;46.112;12.902;2023-08-17T14:28:09;8.05;;;7.22;;
82479;SDS011;72105;46.112;12.902;2023-08-17T14:30:35;8.02;;;7.22;;
82479;SDS011;72105;46.112;12.902;2023-08-17T14:33:01;8.10;;;7.32;;
82479;SDS011;72105;46.112;12.902;2023-08-17T14:35:27;7.07;;;6.38;;
82479;SDS011;72105;46.112;12.902;2023-08-17T14:37:54;8.20;;;7.47;;
82479;SDS011;72105;46.112;12.902;2023-08-17T14:40:23;9.25;;;7.88;;
82479;SDS011;72105;46.112;12.902;2023-08-17T14:42:49;7.53;;;6.82;;
82479;SDS011;72105;46.112;12.902;2023-08-17T14:45:15;7.63;;;6.47;;
82479;SDS011;72105;46.112;12.902;2023-08-17T14:47:41;7.43;;;6.60;;
82479;SDS011;72105;46.112;12.902;2023-08-17T14:50:07;8.23;;;7.40;;
82479;SDS011;72105;46.112;12.902;2023-08-17T14:52:34;7.45;;;6.40;;
82479;SDS011;72105;46.112;12.902;2023-08-17T14:55:00;8.68;;;7.85;;
82479;SDS011;72105;46.112;12.902;2023-08-17T14:57:26;8.57;;;7.22;;